createdAt,value
2022-08-22T00:02:24.614Z,100.00
2022-08-22T00:02:49.936Z,97.27
2022-08-22T00:03:06.941Z,99.36
2022-08-22T00:05:10.662Z,100.00
2022-08-22T00:07:51.111Z,100.00
2022-08-22T00:10:25.919Z,100.00
2022-08-22T00:13:07.483Z,100.00
2022-08-22T00:15:43.416Z,100.00
2022-08-22T00:18:29.430Z,100.00
2022-08-22T00:21:12.873Z,100.00
2022-08-22T00:23:52.688Z,100.00
2022-08-22T00:26:31.951Z,100.00
2022-08-22T00:29:05.374Z,100.00
2022-08-22T00:31:32.349Z,100.00
2022-08-22T00:34:18.066Z,100.00
2022-08-22T00:37:07.832Z,100.00
2022-08-22T00:39:52.184Z,100.00
2022-08-22T00:42:35.068Z,100.00
2022-08-22T00:45:36.404Z,100.00
2022-08-22T00:48:23.262Z,100.00
2022-08-22T00:50:51.516Z,100.00
2022-08-22T00:53:55.262Z,100.00
2022-08-22T00:56:45.179Z,100.00
2022-08-22T00:59:28.743Z,100.00
2022-08-22T01:02:22.158Z,100.00
2022-08-22T01:05:11.111Z,100.00
2022-08-22T01:08:18.050Z,100.00
2022-08-22T01:11:05.995Z,100.00
2022-08-22T01:14:00.730Z,100.00
2022-08-22T01:16:46.039Z,100.00
2022-08-22T01:19:43.281Z,100.00
2022-08-22T01:22:19.880Z,100.00
2022-08-22T01:25:22.464Z,100.00
2022-08-22T01:28:14.578Z,100.00
2022-08-22T01:30:46.047Z,100.00
2022-08-22T01:33:36.128Z,100.00
2022-08-22T01:36:23.603Z,100.00
2022-08-22T01:39:08.781Z,100.00
2022-08-22T01:41:52.557Z,100.00
2022-08-22T01:44:47.073Z,100.00
2022-08-22T01:47:37.787Z,100.00
2022-08-22T01:50:21.315Z,100.00
2022-08-22T01:53:14.506Z,100.00
2022-08-22T01:56:07.961Z,100.00
2022-08-22T01:58:37.699Z,100.00
2022-08-22T02:01:10.836Z,100.00
2022-08-22T02:04:16.431Z,100.00
2022-08-22T02:06:59.141Z,100.00
2022-08-22T02:09:36.256Z,100.00
2022-08-22T02:12:22.503Z,100.00
2022-08-22T02:15:26.729Z,100.00
2022-08-22T02:17:56.400Z,100.00
2022-08-22T02:20:41.404Z,100.00
2022-08-22T02:23:30.247Z,100.00
2022-08-22T02:26:01.356Z,100.00
2022-08-22T02:28:42.423Z,100.00
2022-08-22T02:31:49.350Z,100.00
2022-08-22T02:34:36.833Z,100.00
2022-08-22T02:37:54.919Z,100.00
2022-08-22T02:40:38.018Z,100.00
2022-08-22T02:43:28.326Z,100.00
2022-08-22T02:46:20.087Z,100.00
2022-08-22T02:49:27.348Z,100.00
2022-08-22T02:52:24.228Z,100.00
2022-08-22T02:55:04.675Z,100.00
2022-08-22T02:57:47.435Z,100.00
2022-08-22T03:00:30.659Z,100.00
2022-08-22T03:03:16.757Z,100.00
2022-08-22T03:06:10.004Z,100.00
2022-08-22T03:08:47.527Z,100.00
2022-08-22T03:11:30.356Z,100.00
2022-08-22T03:14:04.697Z,100.00
2022-08-22T03:17:02.906Z,100.00
2022-08-22T03:19:51.439Z,100.00
2022-08-22T03:22:30.261Z,100.00
2022-08-22T03:25:14.643Z,100.00
2022-08-22T03:27:52.070Z,100.00
2022-08-22T03:30:28.870Z,100.00
2022-08-22T03:33:13.054Z,100.00
2022-08-22T03:35:55.648Z,100.00
2022-08-22T03:38:41.811Z,100.00
2022-08-22T03:41:27.140Z,100.00
2022-08-22T03:44:15.550Z,100.00
2022-08-22T03:47:07.005Z,100.00
2022-08-22T03:50:07.458Z,100.00
2022-08-22T03:53:06.515Z,100.00
2022-08-22T03:56:16.981Z,100.00
2022-08-22T03:59:01.141Z,100.00
2022-08-22T04:01:54.236Z,100.00
2022-08-22T04:04:40.598Z,100.00
2022-08-22T04:07:33.287Z,100.00
2022-08-22T04:10:12.769Z,100.00
2022-08-22T04:13:11.207Z,100.00
2022-08-22T04:15:49.694Z,100.00
2022-08-22T04:18:36.516Z,100.00
2022-08-22T04:21:14.780Z,100.00
2022-08-22T04:24:02.763Z,100.00
2022-08-22T04:26:47.223Z,100.00
2022-08-22T04:29:33.960Z,100.00
2022-08-22T04:32:22.942Z,100.00
2022-08-22T04:35:15.567Z,100.00
2022-08-22T04:37:57.046Z,100.00
2022-08-22T04:40:36.952Z,100.00
2022-08-22T04:43:11.601Z,100.00
2022-08-22T04:45:49.579Z,100.00
2022-08-22T04:48:18.655Z,100.00
2022-08-22T04:50:45.207Z,100.00
2022-08-22T04:53:37.564Z,100.00
2022-08-22T04:56:22.526Z,100.00
2022-08-22T04:59:04.647Z,100.00
2022-08-22T05:01:58.514Z,100.00
2022-08-22T05:04:42.537Z,100.00
2022-08-22T05:07:19.706Z,100.00
2022-08-22T05:09:52.944Z,100.00
2022-08-22T05:12:29.123Z,100.00
2022-08-22T05:15:27.348Z,100.00
2022-08-22T05:17:56.388Z,100.00
2022-08-22T05:20:25.616Z,100.00
2022-08-22T05:22:56.698Z,100.00
2022-08-22T05:25:30.699Z,100.00
2022-08-22T05:28:19.172Z,100.00
2022-08-22T05:30:47.434Z,100.00
2022-08-22T05:33:30.691Z,100.00
2022-08-22T05:36:03.555Z,100.00
2022-08-22T05:38:34.866Z,100.00
2022-08-22T05:41:10.310Z,100.00
2022-08-22T05:43:41.787Z,100.00
2022-08-22T05:46:20.500Z,100.00
2022-08-22T05:48:59.869Z,100.00
2022-08-22T05:51:36.861Z,100.00
2022-08-22T05:54:12.407Z,100.00
2022-08-22T05:56:52.951Z,100.00
2022-08-22T05:59:25.541Z,100.00
2022-08-22T06:02:02.413Z,100.00
2022-08-22T06:04:39.443Z,100.00
2022-08-22T06:07:17.684Z,100.00
2022-08-22T06:09:47.853Z,100.00
2022-08-22T06:12:21.664Z,100.00
2022-08-22T06:15:21.088Z,100.00
2022-08-22T06:18:01.916Z,100.00
2022-08-22T06:20:37.138Z,100.00
2022-08-22T06:23:06.070Z,100.00
2022-08-22T06:25:37.700Z,100.00
2022-08-22T06:28:14.092Z,100.00
2022-08-22T06:30:45.626Z,100.00
2022-08-22T06:33:18.979Z,100.00
2022-08-22T06:36:08.233Z,100.00
2022-08-22T06:39:27.282Z,100.00
2022-08-22T06:42:05.514Z,100.00
2022-08-22T06:44:35.879Z,100.00
2022-08-22T06:47:09.123Z,100.00
2022-08-22T06:49:39.504Z,100.00
2022-08-22T06:52:11.677Z,100.00
2022-08-22T06:54:43.822Z,96.61
2022-08-22T06:57:44.180Z,92.77
2022-08-22T07:00:13.865Z,91.15
2022-08-22T07:02:46.452Z,86.90
2022-08-22T07:05:24.748Z,83.53
2022-08-22T07:07:53.067Z,87.93
2022-08-22T07:10:21.865Z,88.35
2022-08-22T07:12:52.331Z,91.12
2022-08-22T07:15:24.443Z,78.80
2022-08-22T07:17:54.826Z,86.32
2022-08-22T07:20:27.984Z,83.82
2022-08-22T07:23:00.099Z,87.92
2022-08-22T07:25:28.203Z,71.98
2022-08-22T07:28:37.097Z,84.13
2022-08-22T07:31:25.981Z,84.01
2022-08-22T07:34:04.611Z,70.73
2022-08-22T07:37:02.330Z,73.38
2022-08-22T07:39:39.748Z,69.32
2022-08-22T07:42:13.878Z,69.09
2022-08-22T07:44:46.636Z,65.38
2022-08-22T07:47:18.012Z,64.37
2022-08-22T07:49:58.811Z,64.59
2022-08-22T07:52:26.973Z,63.96
2022-08-22T07:54:57.885Z,65.77
2022-08-22T07:57:37.724Z,62.85
2022-08-22T08:00:12.613Z,65.93
2022-08-22T08:02:50.119Z,66.36
2022-08-22T08:05:20.042Z,64.24
2022-08-22T08:07:47.975Z,59.79
2022-08-22T08:10:20.033Z,59.40
2022-08-22T08:13:01.756Z,61.05
2022-08-22T08:15:31.991Z,59.08
2022-08-22T08:18:19.119Z,59.15
2022-08-22T08:20:56.659Z,61.70
2022-08-22T08:23:25.149Z,53.97
2022-08-22T08:26:17.203Z,53.92
2022-08-22T08:28:49.148Z,56.54
2022-08-22T08:31:31.483Z,54.78
2022-08-22T08:34:08.836Z,51.89
2022-08-22T08:36:49.324Z,53.30
2022-08-22T08:39:18.519Z,52.74
2022-08-22T08:42:10.418Z,49.23
2022-08-22T08:45:07.356Z,51.84
2022-08-22T08:48:11.145Z,56.90
2022-08-22T08:50:51.882Z,49.85
2022-08-22T08:53:43.271Z,55.88
2022-08-22T08:56:28.542Z,50.26
2022-08-22T08:59:10.049Z,50.74
2022-08-22T09:01:41.660Z,53.55
2022-08-22T09:04:21.061Z,55.12
2022-08-22T09:07:09.440Z,53.13
2022-08-22T09:09:42.788Z,53.55
2022-08-22T09:12:25.876Z,53.76
2022-08-22T09:15:02.881Z,53.95
2022-08-22T09:17:54.445Z,55.96
2022-08-22T09:20:53.884Z,51.59
2022-08-22T09:23:43.333Z,50.40
2022-08-22T09:26:17.518Z,56.47
2022-08-22T09:29:34.294Z,50.86
2022-08-22T09:32:13.089Z,50.01
2022-08-22T09:34:51.780Z,47.48
2022-08-22T09:37:35.261Z,42.49
2022-08-22T09:40:17.466Z,46.14
2022-08-22T09:43:21.367Z,42.15
2022-08-22T09:45:57.493Z,40.92
2022-08-22T09:48:43.588Z,40.04
2022-08-22T09:51:33.165Z,40.75
2022-08-22T09:54:06.382Z,43.25
2022-08-22T09:56:47.811Z,40.73
2022-08-22T09:59:25.340Z,40.72
2022-08-22T10:02:29.259Z,40.68
2022-08-22T10:05:39.513Z,39.83
2022-08-22T10:08:30.523Z,42.41
2022-08-22T10:11:07.489Z,40.16
2022-08-22T10:14:09.183Z,39.55
2022-08-22T10:16:54.664Z,41.57
2022-08-22T10:19:33.758Z,44.63
2022-08-22T10:22:15.247Z,41.97
2022-08-22T10:25:07.604Z,40.48
2022-08-22T10:27:47.108Z,43.82
2022-08-22T10:30:59.374Z,42.90
2022-08-22T10:34:09.168Z,40.52
2022-08-22T10:37:16.171Z,42.78
2022-08-22T10:39:48.496Z,40.03
2022-08-22T10:42:41.731Z,39.99
2022-08-22T10:45:35.262Z,41.78
2022-08-22T10:48:16.359Z,41.24
2022-08-22T10:50:48.196Z,35.64
2022-08-22T10:53:34.981Z,34.39
2022-08-22T10:56:16.175Z,39.48
2022-08-22T10:58:56.140Z,37.09
2022-08-22T11:01:38.446Z,36.93
2022-08-22T11:04:45.921Z,39.49
2022-08-22T11:07:39.484Z,36.91
2022-08-22T11:10:37.522Z,36.91
2022-08-22T11:13:29.070Z,34.53
2022-08-22T11:16:05.979Z,35.44
2022-08-22T11:19:02.852Z,32.48
2022-08-22T11:22:03.656Z,33.83
2022-08-22T11:25:04.165Z,32.03
2022-08-22T11:27:42.206Z,33.23
2022-08-22T11:30:18.228Z,30.69
2022-08-22T11:33:11.596Z,34.96
2022-08-22T11:36:04.642Z,34.54
2022-08-22T11:38:41.332Z,35.07
2022-08-22T11:41:14.362Z,33.43
2022-08-22T11:43:49.130Z,31.25
2022-08-22T11:46:31.823Z,34.10
2022-08-22T11:49:05.616Z,33.34
2022-08-22T11:51:45.966Z,33.84
2022-08-22T11:54:20.989Z,29.74
2022-08-22T11:57:14.959Z,30.32
2022-08-22T11:59:43.361Z,32.38
2022-08-22T12:02:31.597Z,33.65
2022-08-22T12:05:06.742Z,29.87
2022-08-22T12:07:39.386Z,32.85
2022-08-22T12:10:19.734Z,36.07
2022-08-22T12:12:56.255Z,36.15
2022-08-22T12:15:36.376Z,36.10
2022-08-22T12:18:06.273Z,30.52
2022-08-22T12:20:52.922Z,32.01
2022-08-22T12:23:43.453Z,28.30
2022-08-22T12:26:47.323Z,28.48
2022-08-22T12:29:45.173Z,28.25
2022-08-22T12:32:44.065Z,28.67
2022-08-22T12:35:30.115Z,29.30
2022-08-22T12:38:29.387Z,28.45
2022-08-22T12:41:27.654Z,29.68
2022-08-22T12:44:14.779Z,32.79
2022-08-22T12:46:57.608Z,35.73
2022-08-22T12:49:52.346Z,31.84
2022-08-22T12:52:27.781Z,34.24
2022-08-22T12:55:24.871Z,35.78
2022-08-22T12:58:18.769Z,33.93
2022-08-22T13:00:48.176Z,36.93
2022-08-22T13:03:27.200Z,37.75
2022-08-22T13:06:03.535Z,35.16
2022-08-22T13:08:38.589Z,37.56
2022-08-22T13:11:17.493Z,37.40
2022-08-22T13:13:58.859Z,38.38
2022-08-22T13:16:36.390Z,36.98
2022-08-22T13:19:13.466Z,35.92
2022-08-22T13:21:45.770Z,38.41
2022-08-22T13:24:22.532Z,39.37
2022-08-22T13:26:55.135Z,37.89
2022-08-22T13:29:27.320Z,41.08
2022-08-22T13:32:01.961Z,37.89
2022-08-22T13:34:49.142Z,39.17
2022-08-22T13:37:20.260Z,37.83
2022-08-22T13:39:55.159Z,38.05
2022-08-22T13:42:30.141Z,40.04
2022-08-22T13:45:02.447Z,40.14
2022-08-22T13:47:32.469Z,39.03
2022-08-22T13:50:13.955Z,41.07
2022-08-22T13:52:52.444Z,38.91
2022-08-22T13:55:29.426Z,37.81
2022-08-22T13:58:04.627Z,38.08
2022-08-22T14:01:05.847Z,38.87
2022-08-22T14:03:49.240Z,39.29
2022-08-22T14:06:50.106Z,38.26
2022-08-22T14:09:45.285Z,39.33
2022-08-22T14:12:19.463Z,40.14
2022-08-22T14:15:00.577Z,40.93
2022-08-22T14:17:42.513Z,39.91
2022-08-22T14:20:32.218Z,41.53
2022-08-22T14:23:06.203Z,36.74
2022-08-22T14:25:36.451Z,39.56
2022-08-22T14:28:11.537Z,37.41
2022-08-22T14:31:00.909Z,36.17
2022-08-22T14:33:34.092Z,35.81
2022-08-22T14:36:17.220Z,36.96
2022-08-22T14:38:53.431Z,38.08
2022-08-22T14:41:52.306Z,36.51
2022-08-22T14:44:45.994Z,38.85
2022-08-22T14:47:55.610Z,34.96
2022-08-22T14:50:43.643Z,39.81
2022-08-22T14:53:22.124Z,34.04
2022-08-22T14:55:58.608Z,37.37
2022-08-22T14:58:27.749Z,32.92
2022-08-22T15:00:56.165Z,33.09
2022-08-22T15:03:27.826Z,36.26
2022-08-22T15:06:02.060Z,36.74
2022-08-22T15:08:35.143Z,35.81
2022-08-22T15:11:25.157Z,35.26
2022-08-22T15:14:04.178Z,34.48
2022-08-22T15:16:34.863Z,35.77
2022-08-22T15:19:02.253Z,35.75
2022-08-22T15:21:32.808Z,36.35
2022-08-22T15:24:06.530Z,33.81
2022-08-22T15:26:38.383Z,35.32
2022-08-22T15:29:31.639Z,35.11
2022-08-22T15:32:00.996Z,37.40
2022-08-22T15:34:32.632Z,37.51
2022-08-22T15:37:17.695Z,37.33
2022-08-22T15:40:12.749Z,37.22
2022-08-22T15:42:44.030Z,37.42
2022-08-22T15:45:30.581Z,36.58
2022-08-22T15:48:04.503Z,36.38
2022-08-22T15:50:37.426Z,38.08
2022-08-22T15:53:27.699Z,38.15
2022-08-22T15:56:06.792Z,39.13
2022-08-22T15:58:40.281Z,39.52
2022-08-22T16:01:22.173Z,39.80
2022-08-22T16:04:03.476Z,40.04
2022-08-22T16:06:46.655Z,39.85
2022-08-22T16:09:40.644Z,40.53
2022-08-22T16:12:37.316Z,41.41
2022-08-22T16:15:44.619Z,41.14
2022-08-22T16:18:39.366Z,42.71
2022-08-22T16:21:31.422Z,42.32
2022-08-22T16:24:01.300Z,41.86
2022-08-22T16:26:31.623Z,42.34
2022-08-22T16:29:07.997Z,42.63
2022-08-22T16:31:57.207Z,41.84
2022-08-22T16:34:24.879Z,41.61
2022-08-22T16:37:08.903Z,42.11
2022-08-22T16:39:50.130Z,40.67
2022-08-22T16:42:24.175Z,42.31
2022-08-22T16:45:08.886Z,41.45
2022-08-22T16:47:59.269Z,42.54
2022-08-22T16:50:34.742Z,41.61
2022-08-22T16:53:30.875Z,41.71
2022-08-22T16:56:18.370Z,41.67
2022-08-22T16:59:03.333Z,40.51
2022-08-22T17:01:54.922Z,40.31
2022-08-22T17:04:37.799Z,40.91
2022-08-22T17:07:17.801Z,40.36
2022-08-22T17:09:55.782Z,40.53
2022-08-22T17:12:30.455Z,41.87
2022-08-22T17:15:09.726Z,40.88
2022-08-22T17:17:47.394Z,41.09
2022-08-22T17:20:20.424Z,41.64
2022-08-22T17:22:51.486Z,42.04
2022-08-22T17:25:23.531Z,41.73
2022-08-22T17:28:00.255Z,42.23
2022-08-22T17:30:44.422Z,42.19
2022-08-22T17:33:40.508Z,42.54
2022-08-22T17:36:26.544Z,42.68
2022-08-22T17:39:29.117Z,43.11
2022-08-22T17:42:23.781Z,43.40
2022-08-22T17:44:59.575Z,44.80
2022-08-22T17:47:37.486Z,47.38
2022-08-22T17:50:11.090Z,48.70
2022-08-22T17:52:46.452Z,48.67
2022-08-22T17:55:28.983Z,50.52
2022-08-22T17:58:37.596Z,51.57
2022-08-22T18:01:10.666Z,51.25
2022-08-22T18:03:42.388Z,52.33
2022-08-22T18:06:25.281Z,53.03
2022-08-22T18:09:15.212Z,52.58
2022-08-22T18:12:07.105Z,55.63
2022-08-22T18:14:45.116Z,56.61
2022-08-22T18:17:38.462Z,56.73
2022-08-22T18:20:23.983Z,57.38
2022-08-22T18:22:56.782Z,57.26
2022-08-22T18:25:34.607Z,58.28
2022-08-22T18:28:40.765Z,59.89
2022-08-22T18:31:16.406Z,61.00
2022-08-22T18:33:57.222Z,61.32
2022-08-22T18:36:38.309Z,62.78
2022-08-22T18:39:22.707Z,62.89
2022-08-22T18:42:07.995Z,64.22
2022-08-22T18:44:39.449Z,64.39
2022-08-22T18:47:17.129Z,65.14
2022-08-22T18:49:48.482Z,66.05
2022-08-22T18:52:19.538Z,67.22
2022-08-22T18:55:17.229Z,67.99
2022-08-22T18:58:10.815Z,69.37
2022-08-22T19:01:11.135Z,70.44
2022-08-22T19:03:54.972Z,70.42
2022-08-22T19:07:04.635Z,70.79
2022-08-22T19:09:47.064Z,72.40
2022-08-22T19:12:32.156Z,72.60
2022-08-22T19:15:21.595Z,72.91
2022-08-22T19:18:04.795Z,73.52
2022-08-22T19:20:57.759Z,73.73
2022-08-22T19:23:40.369Z,74.91
2022-08-22T19:26:28.542Z,76.61
2022-08-22T19:28:59.619Z,77.08
2022-08-22T19:31:35.264Z,78.09
2022-08-22T19:34:29.980Z,79.10
2022-08-22T19:37:32.457Z,79.96
2022-08-22T19:40:08.963Z,79.56
2022-08-22T19:42:41.495Z,79.69
2022-08-22T19:45:17.783Z,77.74
2022-08-22T19:47:54.379Z,77.95
2022-08-22T19:50:21.311Z,77.21
2022-08-22T19:52:57.784Z,79.50
2022-08-22T19:55:37.851Z,80.48
2022-08-22T19:58:31.942Z,81.68
2022-08-22T20:01:27.418Z,81.92
2022-08-22T20:04:01.869Z,81.57
2022-08-22T20:06:44.444Z,82.86
2022-08-22T20:09:38.845Z,83.60
2022-08-22T20:12:29.666Z,83.25
2022-08-22T20:15:16.438Z,81.93
2022-08-22T20:17:44.479Z,80.09
2022-08-22T20:20:35.610Z,81.01
2022-08-22T20:23:15.852Z,80.35
2022-08-22T20:25:50.200Z,80.08
2022-08-22T20:28:33.279Z,81.43
2022-08-22T20:31:10.594Z,80.81
2022-08-22T20:33:46.043Z,81.54
2022-08-22T20:36:28.480Z,83.86
2022-08-22T20:39:07.653Z,82.70
2022-08-22T20:41:40.508Z,83.23
2022-08-22T20:44:16.076Z,83.83
2022-08-22T20:46:55.198Z,84.83
2022-08-22T20:49:30.458Z,84.75
2022-08-22T20:52:04.831Z,85.02
2022-08-22T20:54:37.942Z,85.91
2022-08-22T20:57:17.147Z,86.34
2022-08-22T20:59:54.388Z,86.48
2022-08-22T21:02:26.564Z,86.51
2022-08-22T21:04:57.661Z,87.81
2022-08-22T21:07:28.949Z,86.77
2022-08-22T21:10:34.951Z,87.93
2022-08-22T21:13:12.340Z,88.17
2022-08-22T21:15:58.080Z,86.66
2022-08-22T21:18:34.107Z,86.12
2022-08-22T21:21:17.513Z,86.13
2022-08-22T21:23:49.926Z,85.50
2022-08-22T21:26:28.685Z,85.52
2022-08-22T21:28:57.553Z,85.72
2022-08-22T21:31:27.245Z,85.27
2022-08-22T21:33:55.148Z,86.40
2022-08-22T21:36:29.334Z,87.74
2022-08-22T21:38:59.576Z,87.15
2022-08-22T21:41:31.616Z,87.25
2022-08-22T21:44:19.490Z,87.10
2022-08-22T21:46:46.266Z,86.65
2022-08-22T21:49:29.168Z,86.50
2022-08-22T21:51:56.186Z,86.67
2022-08-22T21:54:25.390Z,88.53
2022-08-22T21:56:56.864Z,88.34
2022-08-22T21:59:40.232Z,89.60
2022-08-22T22:02:27.550Z,90.73
2022-08-22T22:04:55.995Z,89.34
2022-08-22T22:07:25.678Z,89.12
2022-08-22T22:09:55.326Z,90.68
2022-08-22T22:12:23.982Z,89.81
2022-08-22T22:14:51.850Z,90.11
2022-08-22T22:17:21.006Z,88.94
2022-08-22T22:19:48.463Z,91.58
2022-08-22T22:22:16.582Z,90.88
2022-08-22T22:24:43.925Z,90.69
2022-08-22T22:27:16.388Z,90.74
2022-08-22T22:29:44.621Z,91.31
2022-08-22T22:32:11.612Z,91.83
2022-08-22T22:34:40.043Z,93.10
2022-08-22T22:37:08.367Z,92.58
2022-08-22T22:39:36.345Z,92.21
2022-08-22T22:42:06.806Z,92.25
2022-08-22T22:44:39.041Z,92.64
2022-08-22T22:47:09.760Z,93.08
2022-08-22T22:49:37.791Z,93.62
2022-08-22T22:52:06.205Z,94.42
2022-08-22T22:54:38.310Z,94.28
2022-08-22T22:57:12.483Z,93.79
2022-08-22T22:59:39.552Z,94.08
2022-08-22T23:02:14.756Z,94.24
2022-08-22T23:04:45.181Z,94.73
2022-08-22T23:07:15.007Z,93.80
2022-08-22T23:09:44.559Z,93.56
2022-08-22T23:12:12.986Z,91.27
2022-08-22T23:14:41.207Z,91.75
2022-08-22T23:17:10.995Z,92.17
2022-08-22T23:19:38.938Z,90.93
2022-08-22T23:22:07.307Z,92.20
2022-08-22T23:24:35.143Z,92.22
2022-08-22T23:27:02.154Z,94.44
2022-08-22T23:29:29.639Z,94.15
2022-08-22T23:32:02.227Z,95.07
2022-08-22T23:34:31.694Z,94.34
2022-08-22T23:37:00.543Z,94.52
2022-08-22T23:39:29.488Z,94.68
2022-08-22T23:41:59.255Z,94.06
2022-08-22T23:44:29.824Z,93.70
2022-08-22T23:46:57.312Z,92.93
2022-08-22T23:49:24.024Z,92.73
2022-08-22T23:51:51.635Z,91.97
2022-08-22T23:54:18.798Z,90.61
2022-08-22T23:57:11.470Z,91.67
2022-08-22T23:59:46.270Z,91.46
